KRVS/RVS METAR and TAF weather

Enter ICAO airport designator
Station Type Date Time Source
KRVS METAR 2020/07/11 03:53 UTC NOAA

KRVS 110353Z AUTO 00000KT 10SM CLR 24/22 A3003 RMK AO2 SLP171 T02390222


Station Type Date Time Source
KRVS Decoded METAR 2020/07/11 03:53 UTC NOAA

TULSA JONES JR. AIRPORT, OK, United States (KRVS) 36-03N 095-59W 200M
Jul 10, 2020 - 11:53 PM EDT / 2020.07.11 0353 UTC
Wind: Calm:0
Visibility: 10 mile(s):0
Sky conditions: clear
Temperature: 75.0 F (23.9 C)
Dew Point: 72.0 F (22.2 C)
Relative Humidity: 90%
Pressure (altimeter): 30.03 in. Hg (1016 hPa)
ob: KRVS 110353Z AUTO 00000KT 10SM CLR 24/22 A3003 RMK AO2 SLP171 T02390222
cycle: 4

Station Type Date Time Source
KRVS TAF 2020/07/10 19:03 UTC NOAA

TAF
AMD KRVS 101900Z 1019/1118 15013G28KT P6SM VCSH FEW045 OVC120
FM102000 13008KT P6SM BKN250
FM110300 17007KT P6SM SKC

Example: see airport list